sensor_id;sensor_type;location;lat;lon;timestamp;temperature;humidity
5779;DHT22;2916;49.798;10.022;2023-07-20T00:02:04;18.20;99.90
5779;DHT22;2916;49.798;10.022;2023-07-20T00:04:33;18.10;99.90
5779;DHT22;2916;49.798;10.022;2023-07-20T00:07:00;18.10;99.90
5779;DHT22;2916;49.798;10.022;2023-07-20T00:09:29;18.10;99.90
5779;DHT22;2916;49.798;10.022;2023-07-20T00:11:56;18.10;99.90
5779;DHT22;2916;49.798;10.022;2023-07-20T00:14:25;18.00;99.90
5779;DHT22;2916;49.798;10.022;2023-07-20T00:16:55;18.00;99.90
5779;DHT22;2916;49.798;10.022;2023-07-20T00:19:23;18.00;99.90
5779;DHT22;2916;49.798;10.022;2023-07-20T00:21:51;18.00;99.90
5779;DHT22;2916;49.798;10.022;2023-07-20T00:24:18;17.90;99.90
5779;DHT22;2916;49.798;10.022;2023-07-20T00:26:47;17.90;99.90
5779;DHT22;2916;49.798;10.022;2023-07-20T00:29:14;17.90;99.90
5779;DHT22;2916;49.798;10.022;2023-07-20T00:31:41;17.90;99.90
5779;DHT22;2916;49.798;10.022;2023-07-20T00:34:09;17.90;99.90
5779;DHT22;2916;49.798;10.022;2023-07-20T00:36:36;17.90;99.90
5779;DHT22;2916;49.798;10.022;2023-07-20T00:39:03;17.80;99.90
5779;DHT22;2916;49.798;10.022;2023-07-20T00:41:30;17.90;99.90
5779;DHT22;2916;49.798;10.022;2023-07-20T00:44:00;17.90;99.90
5779;DHT22;2916;49.798;10.022;2023-07-20T00:46:27;17.90;99.90
5779;DHT22;2916;49.798;10.022;2023-07-20T00:48:54;17.90;99.90
5779;DHT22;2916;49.798;10.022;2023-07-20T00:51:23;17.90;99.90
5779;DHT22;2916;49.798;10.022;2023-07-20T00:53:52;17.80;99.90
5779;DHT22;2916;49.798;10.022;2023-07-20T00:56:20;17.80;99.90
5779;DHT22;2916;49.798;10.022;2023-07-20T00:58:48;17.80;99.90
5779;DHT22;2916;49.798;10.022;2023-07-20T01:01:17;17.80;99.90
5779;DHT22;2916;49.798;10.022;2023-07-20T01:03:44;17.80;99.90
5779;DHT22;2916;49.798;10.022;2023-07-20T01:06:19;17.70;99.90
5779;DHT22;2916;49.798;10.022;2023-07-20T01:09:00;17.60;99.90
5779;DHT22;2916;49.798;10.022;2023-07-20T01:11:38;17.60;99.90
5779;DHT22;2916;49.798;10.022;2023-07-20T01:14:10;17.60;99.90
5779;DHT22;2916;49.798;10.022;2023-07-20T01:16:40;17.60;99.90
5779;DHT22;2916;49.798;10.022;2023-07-20T01:19:07;17.60;99.90
5779;DHT22;2916;49.798;10.022;2023-07-20T01:21:40;17.50;99.90
5779;DHT22;2916;49.798;10.022;2023-07-20T01:24:32;17.50;99.90
5779;DHT22;2916;49.798;10.022;2023-07-20T01:30:45;17.40;99.90
5779;DHT22;2916;49.798;10.022;2023-07-20T01:33:22;17.40;99.90
5779;DHT22;2916;49.798;10.022;2023-07-20T01:35:54;17.40;99.90
5779;DHT22;2916;49.798;10.022;2023-07-20T01:38:24;17.40;99.90
5779;DHT22;2916;49.798;10.022;2023-07-20T01:40:52;17.40;99.90
5779;DHT22;2916;49.798;10.022;2023-07-20T01:43:19;17.30;99.90
5779;DHT22;2916;49.798;10.022;2023-07-20T01:45:47;17.30;99.90
5779;DHT22;2916;49.798;10.022;2023-07-20T01:48:14;17.30;99.90
5779;DHT22;2916;49.798;10.022;2023-07-20T01:50:43;17.20;99.90
5779;DHT22;2916;49.798;10.022;2023-07-20T01:53:10;17.20;99.90
5779;DHT22;2916;49.798;10.022;2023-07-20T01:55:37;17.10;99.90
5779;DHT22;2916;49.798;10.022;2023-07-20T01:58:04;17.10;99.90
5779;DHT22;2916;49.798;10.022;2023-07-20T02:00:32;17.10;99.90
5779;DHT22;2916;49.798;10.022;2023-07-20T02:02:59;17.10;99.90
5779;DHT22;2916;49.798;10.022;2023-07-20T02:05:26;17.10;99.90
5779;DHT22;2916;49.798;10.022;2023-07-20T02:07:55;17.10;99.90
5779;DHT22;2916;49.798;10.022;2023-07-20T02:10:22;17.00;99.90
5779;DHT22;2916;49.798;10.022;2023-07-20T02:12:49;17.00;99.90
5779;DHT22;2916;49.798;10.022;2023-07-20T02:15:17;16.90;99.90
5779;DHT22;2916;49.798;10.022;2023-07-20T02:17:44;16.90;99.90
5779;DHT22;2916;49.798;10.022;2023-07-20T02:20:11;16.90;99.90
5779;DHT22;2916;49.798;10.022;2023-07-20T02:22:39;16.80;99.90
5779;DHT22;2916;49.798;10.022;2023-07-20T02:25:09;16.80;99.90
5779;DHT22;2916;49.798;10.022;2023-07-20T02:27:36;16.80;99.90
5779;DHT22;2916;49.798;10.022;2023-07-20T02:30:05;16.70;99.90
5779;DHT22;2916;49.798;10.022;2023-07-20T02:32:35;16.60;99.90
5779;DHT22;2916;49.798;10.022;2023-07-20T02:35:02;16.60;99.90
5779;DHT22;2916;49.798;10.022;2023-07-20T02:37:30;16.60;99.90
5779;DHT22;2916;49.798;10.022;2023-07-20T02:39:58;16.60;99.90
5779;DHT22;2916;49.798;10.022;2023-07-20T02:42:27;16.60;99.90
5779;DHT22;2916;49.798;10.022;2023-07-20T02:44:55;16.60;99.90
5779;DHT22;2916;49.798;10.022;2023-07-20T02:47:22;16.60;99.90
5779;DHT22;2916;49.798;10.022;2023-07-20T02:49:49;16.60;99.90
5779;DHT22;2916;49.798;10.022;2023-07-20T02:52:16;16.50;99.90
5779;DHT22;2916;49.798;10.022;2023-07-20T02:54:43;16.50;99.90
5779;DHT22;2916;49.798;10.022;2023-07-20T02:57:11;16.40;99.90
5779;DHT22;2916;49.798;10.022;2023-07-20T02:59:39;16.40;99.90
5779;DHT22;2916;49.798;10.022;2023-07-20T03:02:06;16.40;99.90
5779;DHT22;2916;49.798;10.022;2023-07-20T03:04:35;16.40;99.90
5779;DHT22;2916;49.798;10.022;2023-07-20T03:07:04;16.30;99.90
5779;DHT22;2916;49.798;10.022;2023-07-20T03:09:31;16.40;99.90
5779;DHT22;2916;49.798;10.022;2023-07-20T03:11:58;16.40;99.90
5779;DHT22;2916;49.798;10.022;2023-07-20T03:14:26;16.40;99.90
5779;DHT22;2916;49.798;10.022;2023-07-20T03:16:55;16.40;99.90
5779;DHT22;2916;49.798;10.022;2023-07-20T03:19:22;16.40;99.90
5779;DHT22;2916;49.798;10.022;2023-07-20T03:21:49;16.40;99.90
5779;DHT22;2916;49.798;10.022;2023-07-20T03:24:16;16.40;99.90
5779;DHT22;2916;49.798;10.022;2023-07-20T03:26:43;16.30;99.90
5779;DHT22;2916;49.798;10.022;2023-07-20T03:29:10;16.30;99.90
5779;DHT22;2916;49.798;10.022;2023-07-20T03:31:37;16.20;99.90
5779;DHT22;2916;49.798;10.022;2023-07-20T03:34:06;16.20;99.90
5779;DHT22;2916;49.798;10.022;2023-07-20T03:36:34;16.20;99.90
5779;DHT22;2916;49.798;10.022;2023-07-20T03:39:01;16.20;99.90
5779;DHT22;2916;49.798;10.022;2023-07-20T03:41:29;16.20;99.90
5779;DHT22;2916;49.798;10.022;2023-07-20T03:43:56;16.20;99.90
5779;DHT22;2916;49.798;10.022;2023-07-20T03:46:23;16.10;99.90
5779;DHT22;2916;49.798;10.022;2023-07-20T03:48:50;16.10;99.90
5779;DHT22;2916;49.798;10.022;2023-07-20T03:51:19;16.10;99.90
5779;DHT22;2916;49.798;10.022;2023-07-20T03:53:46;16.10;99.90
5779;DHT22;2916;49.798;10.022;2023-07-20T03:56:13;16.00;99.90
5779;DHT22;2916;49.798;10.022;2023-07-20T03:58:40;16.00;99.90
5779;DHT22;2916;49.798;10.022;2023-07-20T04:01:07;16.00;99.90
5779;DHT22;2916;49.798;10.022;2023-07-20T04:03:35;16.00;99.90
5779;DHT22;2916;49.798;10.022;2023-07-20T04:06:02;16.00;99.90
5779;DHT22;2916;49.798;10.022;2023-07-20T04:08:31;15.90;99.90
5779;DHT22;2916;49.798;10.022;2023-07-20T04:10:58;15.90;99.90
5779;DHT22;2916;49.798;10.022;2023-07-20T04:13:28;15.90;99.90
5779;DHT22;2916;49.798;10.022;2023-07-20T04:15:58;15.90;99.90
5779;DHT22;2916;49.798;10.022;2023-07-20T04:18:26;16.00;99.90
5779;DHT22;2916;49.798;10.022;2023-07-20T04:20:53;16.10;99.90
5779;DHT22;2916;49.798;10.022;2023-07-20T04:23:20;16.30;99.90
5779;DHT22;2916;49.798;10.022;2023-07-20T04:25:49;16.30;99.90
5779;DHT22;2916;49.798;10.022;2023-07-20T04:28:16;16.30;99.90
5779;DHT22;2916;49.798;10.022;2023-07-20T04:30:43;16.40;99.90
5779;DHT22;2916;49.798;10.022;2023-07-20T04:33:10;16.60;99.90
5779;DHT22;2916;49.798;10.022;2023-07-20T04:35:48;16.70;99.90
5779;DHT22;2916;49.798;10.022;2023-07-20T04:38:18;16.80;99.90
5779;DHT22;2916;49.798;10.022;2023-07-20T04:40:45;16.90;99.90
5779;DHT22;2916;49.798;10.022;2023-07-20T04:43:17;17.10;99.90
5779;DHT22;2916;49.798;10.022;2023-07-20T04:45:45;17.20;99.90
5779;DHT22;2916;49.798;10.022;2023-07-20T04:48:13;17.10;99.90
5779;DHT22;2916;49.798;10.022;2023-07-20T04:50:42;17.10;99.90
5779;DHT22;2916;49.798;10.022;2023-07-20T04:53:11;17.10;99.90
5779;DHT22;2916;49.798;10.022;2023-07-20T04:55:39;17.30;99.90
5779;DHT22;2916;49.798;10.022;2023-07-20T04:58:07;17.40;99.90
5779;DHT22;2916;49.798;10.022;2023-07-20T05:00:38;17.50;99.90
5779;DHT22;2916;49.798;10.022;2023-07-20T05:03:05;17.60;99.90
5779;DHT22;2916;49.798;10.022;2023-07-20T05:05:32;17.70;99.90
5779;DHT22;2916;49.798;10.022;2023-07-20T05:07:59;17.80;99.90
5779;DHT22;2916;49.798;10.022;2023-07-20T05:10:27;18.10;99.90
5779;DHT22;2916;49.798;10.022;2023-07-20T05:12:54;18.30;99.90
5779;DHT22;2916;49.798;10.022;2023-07-20T05:15:21;18.40;99.90
5779;DHT22;2916;49.798;10.022;2023-07-20T05:17:49;19.00;99.90
5779;DHT22;2916;49.798;10.022;2023-07-20T05:20:17;19.60;99.90
5779;DHT22;2916;49.798;10.022;2023-07-20T05:22:44;20.00;99.90
5779;DHT22;2916;49.798;10.022;2023-07-20T05:25:11;20.80;99.90
5779;DHT22;2916;49.798;10.022;2023-07-20T05:27:39;21.30;93.70
5779;DHT22;2916;49.798;10.022;2023-07-20T05:30:07;21.10;89.50
5779;DHT22;2916;49.798;10.022;2023-07-20T05:32:34;21.80;61.50
5779;DHT22;2916;49.798;10.022;2023-07-20T05:35:04;22.40;54.60
5779;DHT22;2916;49.798;10.022;2023-07-20T05:37:32;22.60;42.20
5779;DHT22;2916;49.798;10.022;2023-07-20T05:39:59;22.80;48.50
5779;DHT22;2916;49.798;10.022;2023-07-20T05:42:26;22.80;20.70
5779;DHT22;2916;49.798;10.022;2023-07-20T05:44:53;23.60;1.00
5779;DHT22;2916;49.798;10.022;2023-07-20T05:47:21;23.40;1.00
5779;DHT22;2916;49.798;10.022;2023-07-20T05:49:48;23.20;1.00
5779;DHT22;2916;49.798;10.022;2023-07-20T05:52:17;23.80;1.00
5779;DHT22;2916;49.798;10.022;2023-07-20T05:54:44;24.00;1.00
5779;DHT22;2916;49.798;10.022;2023-07-20T05:57:11;23.70;1.00
5779;DHT22;2916;49.798;10.022;2023-07-20T05:59:39;23.90;1.00
5779;DHT22;2916;49.798;10.022;2023-07-20T06:02:09;24.10;1.00
5779;DHT22;2916;49.798;10.022;2023-07-20T06:04:36;23.80;1.00
5779;DHT22;2916;49.798;10.022;2023-07-20T06:07:04;24.00;1.00
5779;DHT22;2916;49.798;10.022;2023-07-20T06:09:34;24.30;1.00
5779;DHT22;2916;49.798;10.022;2023-07-20T06:12:01;25.00;1.00
5779;DHT22;2916;49.798;10.022;2023-07-20T06:14:29;24.80;1.00
5779;DHT22;2916;49.798;10.022;2023-07-20T06:16:56;25.20;1.00
5779;DHT22;2916;49.798;10.022;2023-07-20T06:19:23;25.60;1.00
5779;DHT22;2916;49.798;10.022;2023-07-20T06:21:50;25.40;1.00
5779;DHT22;2916;49.798;10.022;2023-07-20T06:24:18;26.10;1.00
5779;DHT22;2916;49.798;10.022;2023-07-20T06:26:46;26.10;1.00
5779;DHT22;2916;49.798;10.022;2023-07-20T06:29:13;25.60;1.00
5779;DHT22;2916;49.798;10.022;2023-07-20T06:31:40;26.10;1.00
5779;DHT22;2916;49.798;10.022;2023-07-20T06:34:07;26.30;1.00
5779;DHT22;2916;49.798;10.022;2023-07-20T06:36:35;26.10;1.00
5779;DHT22;2916;49.798;10.022;2023-07-20T06:39:02;27.10;1.00
5779;DHT22;2916;49.798;10.022;2023-07-20T06:41:29;27.10;1.00
5779;DHT22;2916;49.798;10.022;2023-07-20T06:43:58;27.10;1.00
5779;DHT22;2916;49.798;10.022;2023-07-20T06:46:25;26.80;1.00
5779;DHT22;2916;49.798;10.022;2023-07-20T06:48:53;25.80;1.00
5779;DHT22;2916;49.798;10.022;2023-07-20T06:51:20;26.00;1.00
5779;DHT22;2916;49.798;10.022;2023-07-20T06:53:47;26.50;1.00
5779;DHT22;2916;49.798;10.022;2023-07-20T06:56:15;27.10;1.00
5779;DHT22;2916;49.798;10.022;2023-07-20T06:58:42;26.90;1.00
5779;DHT22;2916;49.798;10.022;2023-07-20T07:01:10;26.50;1.00
5779;DHT22;2916;49.798;10.022;2023-07-20T07:03:37;25.70;1.00
5779;DHT22;2916;49.798;10.022;2023-07-20T07:06:04;25.40;1.00
5779;DHT22;2916;49.798;10.022;2023-07-20T07:08:32;25.80;1.00
5779;DHT22;2916;49.798;10.022;2023-07-20T07:10:59;25.40;1.00
5779;DHT22;2916;49.798;10.022;2023-07-20T07:13:26;26.10;1.00
5779;DHT22;2916;49.798;10.022;2023-07-20T07:15:53;26.40;1.00
5779;DHT22;2916;49.798;10.022;2023-07-20T07:18:22;27.30;1.00
5779;DHT22;2916;49.798;10.022;2023-07-20T07:20:51;27.40;1.00
5779;DHT22;2916;49.798;10.022;2023-07-20T07:23:18;27.20;1.00
5779;DHT22;2916;49.798;10.022;2023-07-20T07:25:46;27.70;1.00
5779;DHT22;2916;49.798;10.022;2023-07-20T07:28:13;28.10;1.00
5779;DHT22;2916;49.798;10.022;2023-07-20T07:30:40;27.60;1.00
5779;DHT22;2916;49.798;10.022;2023-07-20T07:33:08;28.20;1.00
5779;DHT22;2916;49.798;10.022;2023-07-20T07:35:36;28.40;1.00
5779;DHT22;2916;49.798;10.022;2023-07-20T07:38:04;28.10;1.00
5779;DHT22;2916;49.798;10.022;2023-07-20T07:40:32;28.20;1.00
5779;DHT22;2916;49.798;10.022;2023-07-20T07:42:59;28.10;1.00
5779;DHT22;2916;49.798;10.022;2023-07-20T07:45:26;27.70;1.00
5779;DHT22;2916;49.798;10.022;2023-07-20T07:47:53;27.70;1.00
5779;DHT22;2916;49.798;10.022;2023-07-20T07:50:20;27.50;1.00
5779;DHT22;2916;49.798;10.022;2023-07-20T07:52:49;27.50;1.00
5779;DHT22;2916;49.798;10.022;2023-07-20T07:55:16;27.30;1.00
5779;DHT22;2916;49.798;10.022;2023-07-20T07:57:43;27.10;1.00
5779;DHT22;2916;49.798;10.022;2023-07-20T08:00:14;26.90;1.00
5779;DHT22;2916;49.798;10.022;2023-07-20T08:02:44;26.40;1.00
5779;DHT22;2916;49.798;10.022;2023-07-20T08:05:12;26.40;1.00
5779;DHT22;2916;49.798;10.022;2023-07-20T08:07:39;26.70;1.00
5779;DHT22;2916;49.798;10.022;2023-07-20T08:10:09;27.20;1.00
5779;DHT22;2916;49.798;10.022;2023-07-20T08:12:36;26.60;1.00
5779;DHT22;2916;49.798;10.022;2023-07-20T08:15:04;27.60;1.00
5779;DHT22;2916;49.798;10.022;2023-07-20T08:17:32;27.90;1.00
5779;DHT22;2916;49.798;10.022;2023-07-20T08:19:59;28.40;1.00
5779;DHT22;2916;49.798;10.022;2023-07-20T08:22:26;28.30;1.00
5779;DHT22;2916;49.798;10.022;2023-07-20T08:24:53;28.40;1.00
5779;DHT22;2916;49.798;10.022;2023-07-20T08:27:22;28.30;1.00
5779;DHT22;2916;49.798;10.022;2023-07-20T08:29:49;28.50;1.00
5779;DHT22;2916;49.798;10.022;2023-07-20T08:32:17;29.00;1.00
5779;DHT22;2916;49.798;10.022;2023-07-20T08:34:44;28.70;1.00
5779;DHT22;2916;49.798;10.022;2023-07-20T08:37:11;28.80;1.00
5779;DHT22;2916;49.798;10.022;2023-07-20T08:39:38;27.60;1.00
5779;DHT22;2916;49.798;10.022;2023-07-20T08:42:06;28.10;1.00
5779;DHT22;2916;49.798;10.022;2023-07-20T08:44:36;28.60;1.00
5779;DHT22;2916;49.798;10.022;2023-07-20T08:47:06;28.00;1.00
5779;DHT22;2916;49.798;10.022;2023-07-20T08:49:34;27.30;1.00
5779;DHT22;2916;49.798;10.022;2023-07-20T08:52:03;26.90;1.00
5779;DHT22;2916;49.798;10.022;2023-07-20T08:54:31;26.60;1.00
5779;DHT22;2916;49.798;10.022;2023-07-20T08:57:02;26.80;1.00
5779;DHT22;2916;49.798;10.022;2023-07-20T08:59:30;27.10;1.00
5779;DHT22;2916;49.798;10.022;2023-07-20T09:02:00;28.00;1.00
5779;DHT22;2916;49.798;10.022;2023-07-20T09:04:28;28.30;1.00
5779;DHT22;2916;49.798;10.022;2023-07-20T09:06:57;28.20;1.00
5779;DHT22;2916;49.798;10.022;2023-07-20T09:09:24;28.50;1.00
5779;DHT22;2916;49.798;10.022;2023-07-20T09:11:51;28.00;1.00
5779;DHT22;2916;49.798;10.022;2023-07-20T09:14:18;28.20;1.00
5779;DHT22;2916;49.798;10.022;2023-07-20T09:16:49;28.00;1.00
5779;DHT22;2916;49.798;10.022;2023-07-20T09:19:18;27.50;1.00
5779;DHT22;2916;49.798;10.022;2023-07-20T09:21:46;27.40;1.00
5779;DHT22;2916;49.798;10.022;2023-07-20T09:24:15;27.90;1.00
5779;DHT22;2916;49.798;10.022;2023-07-20T09:26:45;28.40;1.00
5779;DHT22;2916;49.798;10.022;2023-07-20T09:29:18;28.30;1.00
5779;DHT22;2916;49.798;10.022;2023-07-20T09:31:58;28.20;1.00
5779;DHT22;2916;49.798;10.022;2023-07-20T09:34:28;28.60;1.00
5779;DHT22;2916;49.798;10.022;2023-07-20T09:36:57;28.30;1.00
5779;DHT22;2916;49.798;10.022;2023-07-20T09:39:24;29.00;1.00
5779;DHT22;2916;49.798;10.022;2023-07-20T09:41:52;28.50;1.00
5779;DHT22;2916;49.798;10.022;2023-07-20T09:44:20;27.80;1.00
5779;DHT22;2916;49.798;10.022;2023-07-20T09:46:48;27.50;1.00
5779;DHT22;2916;49.798;10.022;2023-07-20T09:49:17;28.10;1.00
5779;DHT22;2916;49.798;10.022;2023-07-20T09:51:46;28.60;1.00
5779;DHT22;2916;49.798;10.022;2023-07-20T09:54:14;28.80;1.00
5779;DHT22;2916;49.798;10.022;2023-07-20T09:56:42;28.40;1.00
5779;DHT22;2916;49.798;10.022;2023-07-20T09:59:10;28.70;1.00
5779;DHT22;2916;49.798;10.022;2023-07-20T10:01:41;28.80;1.00
5779;DHT22;2916;49.798;10.022;2023-07-20T10:04:10;29.30;1.00
5779;DHT22;2916;49.798;10.022;2023-07-20T10:06:42;28.90;1.00
5779;DHT22;2916;49.798;10.022;2023-07-20T10:09:15;29.00;1.00
5779;DHT22;2916;49.798;10.022;2023-07-20T10:11:50;29.20;1.00
5779;DHT22;2916;49.798;10.022;2023-07-20T10:14:20;29.40;1.00
5779;DHT22;2916;49.798;10.022;2023-07-20T10:16:51;29.40;1.00
5779;DHT22;2916;49.798;10.022;2023-07-20T10:19:34;29.20;1.00
5779;DHT22;2916;49.798;10.022;2023-07-20T10:22:13;29.70;1.00
5779;DHT22;2916;49.798;10.022;2023-07-20T10:24:46;29.30;1.00
5779;DHT22;2916;49.798;10.022;2023-07-20T10:27:14;29.00;1.00
5779;DHT22;2916;49.798;10.022;2023-07-20T10:29:42;28.90;1.00
5779;DHT22;2916;49.798;10.022;2023-07-20T10:32:10;29.10;1.00
5779;DHT22;2916;49.798;10.022;2023-07-20T10:34:37;29.00;1.00
5779;DHT22;2916;49.798;10.022;2023-07-20T10:37:05;29.10;1.00
5779;DHT22;2916;49.798;10.022;2023-07-20T10:39:33;28.20;1.00
5779;DHT22;2916;49.798;10.022;2023-07-20T10:42:03;28.10;1.00
5779;DHT22;2916;49.798;10.022;2023-07-20T10:44:34;27.90;1.00
5779;DHT22;2916;49.798;10.022;2023-07-20T10:47:08;28.00;1.00
5779;DHT22;2916;49.798;10.022;2023-07-20T10:49:57;28.40;1.00
5779;DHT22;2916;49.798;10.022;2023-07-20T10:52:26;28.70;1.00
5779;DHT22;2916;49.798;10.022;2023-07-20T10:54:53;28.30;1.00
5779;DHT22;2916;49.798;10.022;2023-07-20T10:57:39;28.00;1.00
5779;DHT22;2916;49.798;10.022;2023-07-20T11:00:09;27.80;1.00
5779;DHT22;2916;49.798;10.022;2023-07-20T11:02:45;27.50;1.00
5779;DHT22;2916;49.798;10.022;2023-07-20T11:05:32;27.90;1.00
5779;DHT22;2916;49.798;10.022;2023-07-20T11:08:10;28.10;1.00
5779;DHT22;2916;49.798;10.022;2023-07-20T11:10:38;28.40;1.00
5779;DHT22;2916;49.798;10.022;2023-07-20T11:13:21;28.50;1.00
5779;DHT22;2916;49.798;10.022;2023-07-20T11:16:04;28.90;1.00
5779;DHT22;2916;49.798;10.022;2023-07-20T11:18:33;29.00;1.00
5779;DHT22;2916;49.798;10.022;2023-07-20T11:21:08;29.30;1.00
5779;DHT22;2916;49.798;10.022;2023-07-20T11:23:38;29.10;1.00
5779;DHT22;2916;49.798;10.022;2023-07-20T11:26:06;28.70;1.00
5779;DHT22;2916;49.798;10.022;2023-07-20T11:28:35;28.10;1.00
5779;DHT22;2916;49.798;10.022;2023-07-20T11:31:02;28.50;1.00
5779;DHT22;2916;49.798;10.022;2023-07-20T11:33:29;28.40;1.00
5779;DHT22;2916;49.798;10.022;2023-07-20T11:35:57;28.50;1.00
5779;DHT22;2916;49.798;10.022;2023-07-20T11:38:24;28.60;1.00
5779;DHT22;2916;49.798;10.022;2023-07-20T11:40:51;28.40;1.00
5779;DHT22;2916;49.798;10.022;2023-07-20T11:43:19;28.10;1.00
5779;DHT22;2916;49.798;10.022;2023-07-20T11:45:50;28.40;1.00
5779;DHT22;2916;49.798;10.022;2023-07-20T11:48:17;28.70;1.00
5779;DHT22;2916;49.798;10.022;2023-07-20T11:50:44;29.00;1.00
5779;DHT22;2916;49.798;10.022;2023-07-20T11:53:12;28.80;1.00
5779;DHT22;2916;49.798;10.022;2023-07-20T11:55:41;28.50;1.00
5779;DHT22;2916;49.798;10.022;2023-07-20T11:58:09;27.80;1.00
5779;DHT22;2916;49.798;10.022;2023-07-20T12:00:38;28.10;1.00
5779;DHT22;2916;49.798;10.022;2023-07-20T12:03:07;28.60;1.00
5779;DHT22;2916;49.798;10.022;2023-07-20T12:05:38;28.10;1.00
5779;DHT22;2916;49.798;10.022;2023-07-20T12:08:06;28.00;1.00
5779;DHT22;2916;49.798;10.022;2023-07-20T12:10:33;28.00;1.00
5779;DHT22;2916;49.798;10.022;2023-07-20T12:13:01;28.00;1.00
5779;DHT22;2916;49.798;10.022;2023-07-20T12:15:30;28.30;1.00
5779;DHT22;2916;49.798;10.022;2023-07-20T12:17:58;28.20;1.00
5779;DHT22;2916;49.798;10.022;2023-07-20T12:20:30;27.90;1.00
5779;DHT22;2916;49.798;10.022;2023-07-20T12:23:00;27.60;1.00
5779;DHT22;2916;49.798;10.022;2023-07-20T12:25:36;27.30;1.00
5779;DHT22;2916;49.798;10.022;2023-07-20T12:28:06;27.40;1.00
5779;DHT22;2916;49.798;10.022;2023-07-20T12:30:35;27.70;1.00
5779;DHT22;2916;49.798;10.022;2023-07-20T12:33:03;27.60;1.00
5779;DHT22;2916;49.798;10.022;2023-07-20T12:35:33;27.60;1.00
5779;DHT22;2916;49.798;10.022;2023-07-20T12:38:01;27.70;1.00
5779;DHT22;2916;49.798;10.022;2023-07-20T12:40:28;27.80;1.00
5779;DHT22;2916;49.798;10.022;2023-07-20T12:42:56;28.00;1.00
5779;DHT22;2916;49.798;10.022;2023-07-20T12:45:24;27.90;1.00
5779;DHT22;2916;49.798;10.022;2023-07-20T12:47:51;27.70;1.00
5779;DHT22;2916;49.798;10.022;2023-07-20T12:50:18;27.50;1.00
5779;DHT22;2916;49.798;10.022;2023-07-20T12:52:47;27.30;1.00
5779;DHT22;2916;49.798;10.022;2023-07-20T12:55:14;27.60;1.00
5779;DHT22;2916;49.798;10.022;2023-07-20T12:57:41;27.70;1.00
5779;DHT22;2916;49.798;10.022;2023-07-20T13:00:10;27.40;1.00
5779;DHT22;2916;49.798;10.022;2023-07-20T13:02:38;27.40;1.00
5779;DHT22;2916;49.798;10.022;2023-07-20T13:05:06;27.30;1.00
5779;DHT22;2916;49.798;10.022;2023-07-20T13:07:34;27.20;1.00
5779;DHT22;2916;49.798;10.022;2023-07-20T13:10:05;27.20;1.00
5779;DHT22;2916;49.798;10.022;2023-07-20T13:12:33;27.50;1.00
5779;DHT22;2916;49.798;10.022;2023-07-20T13:15:02;27.50;1.00
5779;DHT22;2916;49.798;10.022;2023-07-20T13:17:31;27.30;1.00
5779;DHT22;2916;49.798;10.022;2023-07-20T13:19:59;27.00;1.00
5779;DHT22;2916;49.798;10.022;2023-07-20T13:22:31;27.10;1.00
5779;DHT22;2916;49.798;10.022;2023-07-20T13:24:58;26.90;1.00
5779;DHT22;2916;49.798;10.022;2023-07-20T13:27:27;26.90;1.00
5779;DHT22;2916;49.798;10.022;2023-07-20T13:29:55;26.90;1.00
5779;DHT22;2916;49.798;10.022;2023-07-20T13:32:23;26.90;1.00
5779;DHT22;2916;49.798;10.022;2023-07-20T13:34:50;26.80;1.00
5779;DHT22;2916;49.798;10.022;2023-07-20T13:37:17;26.90;1.00
5779;DHT22;2916;49.798;10.022;2023-07-20T13:39:44;26.80;1.00
5779;DHT22;2916;49.798;10.022;2023-07-20T13:42:12;26.70;1.00
5779;DHT22;2916;49.798;10.022;2023-07-20T13:44:41;26.70;1.00
5779;DHT22;2916;49.798;10.022;2023-07-20T13:47:08;26.40;1.00
5779;DHT22;2916;49.798;10.022;2023-07-20T13:49:35;26.50;1.00
5779;DHT22;2916;49.798;10.022;2023-07-20T13:52:02;26.50;1.00
5779;DHT22;2916;49.798;10.022;2023-07-20T13:54:30;26.50;1.00
5779;DHT22;2916;49.798;10.022;2023-07-20T13:56:57;26.40;1.00
5779;DHT22;2916;49.798;10.022;2023-07-20T13:59:24;26.20;1.00
5779;DHT22;2916;49.798;10.022;2023-07-20T14:01:53;26.00;1.00
5779;DHT22;2916;49.798;10.022;2023-07-20T14:04:20;26.10;1.00
5779;DHT22;2916;49.798;10.022;2023-07-20T14:06:47;26.10;1.00
5779;DHT22;2916;49.798;10.022;2023-07-20T14:09:14;26.20;1.00
5779;DHT22;2916;49.798;10.022;2023-07-20T14:11:41;26.40;1.00
5779;DHT22;2916;49.798;10.022;2023-07-20T14:14:09;26.40;1.00
5779;DHT22;2916;49.798;10.022;2023-07-20T14:16:36;26.40;1.00
5779;DHT22;2916;49.798;10.022;2023-07-20T14:19:05;26.40;1.00
5779;DHT22;2916;49.798;10.022;2023-07-20T14:21:32;26.60;1.00
5779;DHT22;2916;49.798;10.022;2023-07-20T14:23:59;26.70;1.00
5779;DHT22;2916;49.798;10.022;2023-07-20T14:26:27;26.90;1.00
5779;DHT22;2916;49.798;10.022;2023-07-20T14:28:54;27.00;1.00
5779;DHT22;2916;49.798;10.022;2023-07-20T14:31:21;27.00;1.00
5779;DHT22;2916;49.798;10.022;2023-07-20T14:33:49;27.20;1.00
5779;DHT22;2916;49.798;10.022;2023-07-20T14:36:17;27.20;1.00
5779;DHT22;2916;49.798;10.022;2023-07-20T14:38:44;27.20;1.00
5779;DHT22;2916;49.798;10.022;2023-07-20T14:41:11;27.00;1.00
5779;DHT22;2916;49.798;10.022;2023-07-20T14:43:38;26.90;1.00
5779;DHT22;2916;49.798;10.022;2023-07-20T14:46:06;26.70;1.00
5779;DHT22;2916;49.798;10.022;2023-07-20T14:48:33;27.10;1.00
5779;DHT22;2916;49.798;10.022;2023-07-20T14:51:00;27.10;1.00
5779;DHT22;2916;49.798;10.022;2023-07-20T14:53:28;27.10;1.00
5779;DHT22;2916;49.798;10.022;2023-07-20T14:55:59;27.10;1.00
5779;DHT22;2916;49.798;10.022;2023-07-20T14:58:26;27.20;1.00
5779;DHT22;2916;49.798;10.022;2023-07-20T15:00:54;27.10;1.00
5779;DHT22;2916;49.798;10.022;2023-07-20T15:03:21;27.00;1.00
5779;DHT22;2916;49.798;10.022;2023-07-20T15:05:48;26.60;1.00
5779;DHT22;2916;49.798;10.022;2023-07-20T15:08:16;26.40;1.00
5779;DHT22;2916;49.798;10.022;2023-07-20T15:10:45;26.40;1.00
5779;DHT22;2916;49.798;10.022;2023-07-20T15:13:13;26.40;1.00
5779;DHT22;2916;49.798;10.022;2023-07-20T15:15:40;26.10;1.00
5779;DHT22;2916;49.798;10.022;2023-07-20T15:18:08;26.00;1.00
5779;DHT22;2916;49.798;10.022;2023-07-20T15:20:35;26.20;1.00
5779;DHT22;2916;49.798;10.022;2023-07-20T15:23:02;26.20;1.00
5779;DHT22;2916;49.798;10.022;2023-07-20T15:25:30;26.20;1.00
5779;DHT22;2916;49.798;10.022;2023-07-20T15:27:58;26.10;1.00
5779;DHT22;2916;49.798;10.022;2023-07-20T15:30:27;26.30;1.00
5779;DHT22;2916;49.798;10.022;2023-07-20T15:32:54;26.40;1.00
5779;DHT22;2916;49.798;10.022;2023-07-20T15:35:22;26.40;1.00
5779;DHT22;2916;49.798;10.022;2023-07-20T15:37:49;26.20;1.00
5779;DHT22;2916;49.798;10.022;2023-07-20T15:40:17;26.20;1.00
5779;DHT22;2916;49.798;10.022;2023-07-20T15:42:44;26.20;1.00
5779;DHT22;2916;49.798;10.022;2023-07-20T15:45:13;26.10;1.00
5779;DHT22;2916;49.798;10.022;2023-07-20T15:47:40;26.10;1.00
5779;DHT22;2916;49.798;10.022;2023-07-20T15:50:07;26.10;1.00
5779;DHT22;2916;49.798;10.022;2023-07-20T15:52:35;26.10;1.00
5779;DHT22;2916;49.798;10.022;2023-07-20T15:55:02;26.40;1.00
5779;DHT22;2916;49.798;10.022;2023-07-20T15:57:30;26.50;1.00
5779;DHT22;2916;49.798;10.022;2023-07-20T15:59:57;26.30;1.00
5779;DHT22;2916;49.798;10.022;2023-07-20T16:02:25;26.00;1.00
5779;DHT22;2916;49.798;10.022;2023-07-20T16:04:52;25.80;1.00
5779;DHT22;2916;49.798;10.022;2023-07-20T16:07:20;25.90;1.00
5779;DHT22;2916;49.798;10.022;2023-07-20T16:09:47;26.00;1.00